sensor_id;sensor_type;location;lat;lon;timestamp;temperature;humidity
7814;DHT22;3952;48.364;16.022;2023-11-19T00:00:20;1.80;99.90
7814;DHT22;3952;48.364;16.022;2023-11-19T00:02:47;1.80;99.90
7814;DHT22;3952;48.364;16.022;2023-11-19T00:05:14;1.80;99.90
7814;DHT22;3952;48.364;16.022;2023-11-19T00:07:42;2.90;99.90
7814;DHT22;3952;48.364;16.022;2023-11-19T00:10:12;1.90;99.90
7814;DHT22;3952;48.364;16.022;2023-11-19T00:12:41;1.90;99.90
7814;DHT22;3952;48.364;16.022;2023-11-19T00:15:09;1.90;99.90
7814;DHT22;3952;48.364;16.022;2023-11-19T00:17:37;1.90;99.90
7814;DHT22;3952;48.364;16.022;2023-11-19T00:20:08;1.90;99.90
7814;DHT22;3952;48.364;16.022;2023-11-19T00:22:35;1.90;99.90
7814;DHT22;3952;48.364;16.022;2023-11-19T00:25:02;1.90;99.90
7814;DHT22;3952;48.364;16.022;2023-11-19T00:27:32;1.90;99.90
7814;DHT22;3952;48.364;16.022;2023-11-19T00:29:59;1.90;99.90
7814;DHT22;3952;48.364;16.022;2023-11-19T00:32:26;1.90;99.90
7814;DHT22;3952;48.364;16.022;2023-11-19T00:34:53;1.90;99.90
7814;DHT22;3952;48.364;16.022;2023-11-19T00:37:21;1.90;99.90
7814;DHT22;3952;48.364;16.022;2023-11-19T00:39:48;2.00;99.90
7814;DHT22;3952;48.364;16.022;2023-11-19T00:42:15;2.00;99.90
7814;DHT22;3952;48.364;16.022;2023-11-19T00:44:44;2.00;99.90
7814;DHT22;3952;48.364;16.022;2023-11-19T00:47:12;2.00;99.90
7814;DHT22;3952;48.364;16.022;2023-11-19T00:49:39;2.00;99.90
7814;DHT22;3952;48.364;16.022;2023-11-19T00:52:06;2.00;99.90
7814;DHT22;3952;48.364;16.022;2023-11-19T00:54:33;2.00;99.90
7814;DHT22;3952;48.364;16.022;2023-11-19T00:57:01;2.10;99.90
7814;DHT22;3952;48.364;16.022;2023-11-19T00:59:28;2.10;99.90
7814;DHT22;3952;48.364;16.022;2023-11-19T01:01:57;2.10;99.90
7814;DHT22;3952;48.364;16.022;2023-11-19T01:04:24;2.20;99.90
7814;DHT22;3952;48.364;16.022;2023-11-19T01:06:51;2.20;99.90
7814;DHT22;3952;48.364;16.022;2023-11-19T01:09:20;4.30;99.90
7814;DHT22;3952;48.364;16.022;2023-11-19T01:11:47;2.20;99.90
7814;DHT22;3952;48.364;16.022;2023-11-19T01:14:14;2.30;99.90
7814;DHT22;3952;48.364;16.022;2023-11-19T01:16:43;2.30;99.90
7814;DHT22;3952;48.364;16.022;2023-11-19T01:19:12;2.30;99.90
7814;DHT22;3952;48.364;16.022;2023-11-19T01:21:39;2.30;99.90
7814;DHT22;3952;48.364;16.022;2023-11-19T01:24:07;2.30;99.90
7814;DHT22;3952;48.364;16.022;2023-11-19T01:26:35;2.30;99.90
7814;DHT22;3952;48.364;16.022;2023-11-19T01:29:02;2.30;99.90
7814;DHT22;3952;48.364;16.022;2023-11-19T01:31:30;2.20;99.90
7814;DHT22;3952;48.364;16.022;2023-11-19T01:33:59;2.20;99.90
7814;DHT22;3952;48.364;16.022;2023-11-19T01:36:28;2.20;99.90
7814;DHT22;3952;48.364;16.022;2023-11-19T01:38:55;2.20;99.90
7814;DHT22;3952;48.364;16.022;2023-11-19T01:41:22;2.20;99.90
7814;DHT22;3952;48.364;16.022;2023-11-19T01:43:51;2.20;99.90
7814;DHT22;3952;48.364;16.022;2023-11-19T01:46:18;2.20;99.90
7814;DHT22;3952;48.364;16.022;2023-11-19T01:48:46;2.30;99.90
7814;DHT22;3952;48.364;16.022;2023-11-19T01:51:13;2.30;99.90
7814;DHT22;3952;48.364;16.022;2023-11-19T01:53:44;2.20;99.90
7814;DHT22;3952;48.364;16.022;2023-11-19T01:56:14;2.30;99.90
7814;DHT22;3952;48.364;16.022;2023-11-19T01:58:43;2.30;99.90
7814;DHT22;3952;48.364;16.022;2023-11-19T02:01:12;2.20;99.90
7814;DHT22;3952;48.364;16.022;2023-11-19T02:03:40;2.20;99.90
7814;DHT22;3952;48.364;16.022;2023-11-19T02:06:08;2.20;99.90
7814;DHT22;3952;48.364;16.022;2023-11-19T02:08:36;2.20;99.90
7814;DHT22;3952;48.364;16.022;2023-11-19T02:11:06;2.10;99.90
7814;DHT22;3952;48.364;16.022;2023-11-19T02:13:34;2.10;99.90
7814;DHT22;3952;48.364;16.022;2023-11-19T02:16:04;2.10;99.90
7814;DHT22;3952;48.364;16.022;2023-11-19T02:18:34;2.10;99.90
7814;DHT22;3952;48.364;16.022;2023-11-19T02:21:01;2.10;99.90
7814;DHT22;3952;48.364;16.022;2023-11-19T02:23:28;2.10;99.90
7814;DHT22;3952;48.364;16.022;2023-11-19T02:26:05;2.10;99.90
7814;DHT22;3952;48.364;16.022;2023-11-19T02:28:37;2.10;99.90
7814;DHT22;3952;48.364;16.022;2023-11-19T02:31:04;2.10;99.90
7814;DHT22;3952;48.364;16.022;2023-11-19T02:33:35;2.10;99.90
7814;DHT22;3952;48.364;16.022;2023-11-19T02:36:03;2.10;99.90
7814;DHT22;3952;48.364;16.022;2023-11-19T02:38:30;2.10;99.90
7814;DHT22;3952;48.364;16.022;2023-11-19T02:40:57;2.10;99.90
7814;DHT22;3952;48.364;16.022;2023-11-19T02:43:25;2.10;99.90
7814;DHT22;3952;48.364;16.022;2023-11-19T02:45:54;2.10;99.90
7814;DHT22;3952;48.364;16.022;2023-11-19T02:48:22;2.10;99.90
7814;DHT22;3952;48.364;16.022;2023-11-19T02:50:49;2.00;99.90
7814;DHT22;3952;48.364;16.022;2023-11-19T02:53:18;2.00;99.90
7814;DHT22;3952;48.364;16.022;2023-11-19T02:55:47;2.10;99.90
7814;DHT22;3952;48.364;16.022;2023-11-19T02:58:16;2.10;99.90
7814;DHT22;3952;48.364;16.022;2023-11-19T03:00:49;2.10;99.90
7814;DHT22;3952;48.364;16.022;2023-11-19T03:03:24;2.10;99.90
7814;DHT22;3952;48.364;16.022;2023-11-19T03:05:54;2.00;99.90
7814;DHT22;3952;48.364;16.022;2023-11-19T03:08:21;2.00;99.90
7814;DHT22;3952;48.364;16.022;2023-11-19T03:10:49;2.00;99.90
7814;DHT22;3952;48.364;16.022;2023-11-19T03:13:16;2.00;99.90
7814;DHT22;3952;48.364;16.022;2023-11-19T03:15:44;2.00;99.90
7814;DHT22;3952;48.364;16.022;2023-11-19T03:18:10;2.00;99.90
7814;DHT22;3952;48.364;16.022;2023-11-19T03:20:39;2.00;99.90
7814;DHT22;3952;48.364;16.022;2023-11-19T03:23:06;2.00;99.90
7814;DHT22;3952;48.364;16.022;2023-11-19T03:25:33;2.00;99.90
7814;DHT22;3952;48.364;16.022;2023-11-19T03:28:02;2.00;99.90
7814;DHT22;3952;48.364;16.022;2023-11-19T03:30:30;2.00;99.90
7814;DHT22;3952;48.364;16.022;2023-11-19T03:32:58;2.00;99.90
7814;DHT22;3952;48.364;16.022;2023-11-19T03:35:26;2.00;99.90
7814;DHT22;3952;48.364;16.022;2023-11-19T03:37:56;2.10;99.90
7814;DHT22;3952;48.364;16.022;2023-11-19T03:40:23;2.10;99.90
7814;DHT22;3952;48.364;16.022;2023-11-19T03:42:50;2.10;99.90
7814;DHT22;3952;48.364;16.022;2023-11-19T03:45:18;2.10;99.90
7814;DHT22;3952;48.364;16.022;2023-11-19T03:47:45;2.10;99.90
7814;DHT22;3952;48.364;16.022;2023-11-19T03:50:12;2.00;99.90
7814;DHT22;3952;48.364;16.022;2023-11-19T03:52:41;2.00;99.90
7814;DHT22;3952;48.364;16.022;2023-11-19T03:55:10;2.00;99.90
7814;DHT22;3952;48.364;16.022;2023-11-19T03:57:38;2.00;99.90
7814;DHT22;3952;48.364;16.022;2023-11-19T04:00:06;2.00;99.90
7814;DHT22;3952;48.364;16.022;2023-11-19T04:02:36;2.10;99.90
7814;DHT22;3952;48.364;16.022;2023-11-19T04:05:02;2.10;99.90
7814;DHT22;3952;48.364;16.022;2023-11-19T04:07:30;2.10;99.90
7814;DHT22;3952;48.364;16.022;2023-11-19T04:09:58;2.10;99.90
7814;DHT22;3952;48.364;16.022;2023-11-19T04:12:27;2.10;99.90
7814;DHT22;3952;48.364;16.022;2023-11-19T04:14:54;2.10;99.90
7814;DHT22;3952;48.364;16.022;2023-11-19T04:17:22;2.20;99.90
7814;DHT22;3952;48.364;16.022;2023-11-19T04:19:50;2.10;99.90
7814;DHT22;3952;48.364;16.022;2023-11-19T04:22:17;2.20;99.90
7814;DHT22;3952;48.364;16.022;2023-11-19T04:24:44;2.20;99.90
7814;DHT22;3952;48.364;16.022;2023-11-19T04:27:12;2.20;99.90
7814;DHT22;3952;48.364;16.022;2023-11-19T04:29:40;2.20;99.90
7814;DHT22;3952;48.364;16.022;2023-11-19T04:32:08;2.30;99.90
7814;DHT22;3952;48.364;16.022;2023-11-19T04:34:35;2.30;99.90
7814;DHT22;3952;48.364;16.022;2023-11-19T04:37:03;2.30;99.90
7814;DHT22;3952;48.364;16.022;2023-11-19T04:39:31;2.40;99.90
7814;DHT22;3952;48.364;16.022;2023-11-19T04:41:58;2.40;99.90
7814;DHT22;3952;48.364;16.022;2023-11-19T04:44:25;2.40;99.90
7814;DHT22;3952;48.364;16.022;2023-11-19T04:46:54;2.40;99.90
7814;DHT22;3952;48.364;16.022;2023-11-19T04:49:21;2.40;99.90
7814;DHT22;3952;48.364;16.022;2023-11-19T04:51:48;2.50;99.90
7814;DHT22;3952;48.364;16.022;2023-11-19T04:54:16;2.50;99.90
7814;DHT22;3952;48.364;16.022;2023-11-19T04:56:45;2.50;99.90
7814;DHT22;3952;48.364;16.022;2023-11-19T04:59:13;2.50;99.90
7814;DHT22;3952;48.364;16.022;2023-11-19T05:01:40;2.50;99.90
7814;DHT22;3952;48.364;16.022;2023-11-19T05:04:09;2.60;99.90
7814;DHT22;3952;48.364;16.022;2023-11-19T05:06:36;2.60;99.90
7814;DHT22;3952;48.364;16.022;2023-11-19T05:09:03;2.60;99.90
7814;DHT22;3952;48.364;16.022;2023-11-19T05:11:33;2.60;99.90
7814;DHT22;3952;48.364;16.022;2023-11-19T05:14:02;2.60;99.90
7814;DHT22;3952;48.364;16.022;2023-11-19T05:16:31;2.60;99.90
7814;DHT22;3952;48.364;16.022;2023-11-19T05:18:58;2.60;99.90
7814;DHT22;3952;48.364;16.022;2023-11-19T05:21:27;2.60;99.90
7814;DHT22;3952;48.364;16.022;2023-11-19T05:23:54;2.70;99.90
7814;DHT22;3952;48.364;16.022;2023-11-19T05:26:22;2.70;99.90
7814;DHT22;3952;48.364;16.022;2023-11-19T05:28:50;2.70;99.90
7814;DHT22;3952;48.364;16.022;2023-11-19T05:31:18;2.80;99.90
7814;DHT22;3952;48.364;16.022;2023-11-19T05:33:45;2.80;99.90
7814;DHT22;3952;48.364;16.022;2023-11-19T05:36:13;2.90;99.90
7814;DHT22;3952;48.364;16.022;2023-11-19T05:38:41;2.90;99.90
7814;DHT22;3952;48.364;16.022;2023-11-19T05:41:10;2.90;99.90
7814;DHT22;3952;48.364;16.022;2023-11-19T05:43:37;3.00;99.90
7814;DHT22;3952;48.364;16.022;2023-11-19T05:46:06;3.00;99.90
7814;DHT22;3952;48.364;16.022;2023-11-19T05:48:34;3.00;99.90
7814;DHT22;3952;48.364;16.022;2023-11-19T05:51:02;3.00;99.90
7814;DHT22;3952;48.364;16.022;2023-11-19T05:53:29;3.00;99.90
7814;DHT22;3952;48.364;16.022;2023-11-19T05:55:58;3.00;99.90
7814;DHT22;3952;48.364;16.022;2023-11-19T05:58:29;3.00;99.90
7814;DHT22;3952;48.364;16.022;2023-11-19T06:00:58;3.00;99.90
7814;DHT22;3952;48.364;16.022;2023-11-19T06:03:26;3.10;99.90
7814;DHT22;3952;48.364;16.022;2023-11-19T06:05:54;3.10;99.90
7814;DHT22;3952;48.364;16.022;2023-11-19T06:08:21;3.10;99.90
7814;DHT22;3952;48.364;16.022;2023-11-19T06:10:48;3.10;99.90
7814;DHT22;3952;48.364;16.022;2023-11-19T06:13:18;3.10;99.90
7814;DHT22;3952;48.364;16.022;2023-11-19T06:15:45;3.10;99.90
7814;DHT22;3952;48.364;16.022;2023-11-19T06:18:12;3.10;99.90
7814;DHT22;3952;48.364;16.022;2023-11-19T06:20:41;3.20;99.90
7814;DHT22;3952;48.364;16.022;2023-11-19T06:23:08;3.20;99.90
7814;DHT22;3952;48.364;16.022;2023-11-19T06:25:35;3.20;99.90
7814;DHT22;3952;48.364;16.022;2023-11-19T06:28:03;3.20;99.90
7814;DHT22;3952;48.364;16.022;2023-11-19T06:30:31;3.20;99.90
7814;DHT22;3952;48.364;16.022;2023-11-19T06:32:59;3.20;99.90
7814;DHT22;3952;48.364;16.022;2023-11-19T06:35:26;3.20;99.90
7814;DHT22;3952;48.364;16.022;2023-11-19T06:37:55;3.20;99.90
7814;DHT22;3952;48.364;16.022;2023-11-19T06:40:22;3.20;99.90
7814;DHT22;3952;48.364;16.022;2023-11-19T06:42:50;3.20;99.90
7814;DHT22;3952;48.364;16.022;2023-11-19T06:45:18;3.30;99.90
7814;DHT22;3952;48.364;16.022;2023-11-19T06:47:47;3.20;99.90
7814;DHT22;3952;48.364;16.022;2023-11-19T06:50:15;3.20;99.90
7814;DHT22;3952;48.364;16.022;2023-11-19T06:52:42;3.20;99.90
7814;DHT22;3952;48.364;16.022;2023-11-19T06:55:09;3.20;99.90
7814;DHT22;3952;48.364;16.022;2023-11-19T06:57:37;3.20;99.90
7814;DHT22;3952;48.364;16.022;2023-11-19T07:00:05;3.20;99.90
7814;DHT22;3952;48.364;16.022;2023-11-19T07:02:34;3.20;99.90
7814;DHT22;3952;48.364;16.022;2023-11-19T07:05:03;3.20;99.90
7814;DHT22;3952;48.364;16.022;2023-11-19T07:07:31;3.20;99.90
7814;DHT22;3952;48.364;16.022;2023-11-19T07:09:59;3.20;99.90
7814;DHT22;3952;48.364;16.022;2023-11-19T07:12:26;3.30;99.90
7814;DHT22;3952;48.364;16.022;2023-11-19T07:14:53;3.30;99.90
7814;DHT22;3952;48.364;16.022;2023-11-19T07:17:21;3.30;99.90
7814;DHT22;3952;48.364;16.022;2023-11-19T07:19:50;3.30;99.90
7814;DHT22;3952;48.364;16.022;2023-11-19T07:22:18;3.40;99.90
7814;DHT22;3952;48.364;16.022;2023-11-19T07:24:46;3.30;99.90
7814;DHT22;3952;48.364;16.022;2023-11-19T07:27:13;3.30;99.90
7814;DHT22;3952;48.364;16.022;2023-11-19T07:29:43;3.30;99.90
7814;DHT22;3952;48.364;16.022;2023-11-19T07:32:10;3.30;99.90
7814;DHT22;3952;48.364;16.022;2023-11-19T07:34:39;3.30;99.90
7814;DHT22;3952;48.364;16.022;2023-11-19T07:37:06;3.30;99.90
7814;DHT22;3952;48.364;16.022;2023-11-19T07:39:35;3.40;99.90
7814;DHT22;3952;48.364;16.022;2023-11-19T07:42:06;3.40;99.90
7814;DHT22;3952;48.364;16.022;2023-11-19T07:44:35;3.40;99.90
7814;DHT22;3952;48.364;16.022;2023-11-19T07:47:02;3.40;99.90
7814;DHT22;3952;48.364;16.022;2023-11-19T07:49:30;3.50;99.90
7814;DHT22;3952;48.364;16.022;2023-11-19T07:51:57;3.50;99.90
7814;DHT22;3952;48.364;16.022;2023-11-19T07:54:25;3.60;99.90
7814;DHT22;3952;48.364;16.022;2023-11-19T07:56:53;3.60;99.90
7814;DHT22;3952;48.364;16.022;2023-11-19T07:59:21;3.60;99.90
7814;DHT22;3952;48.364;16.022;2023-11-19T08:01:48;3.60;99.90
7814;DHT22;3952;48.364;16.022;2023-11-19T08:04:15;3.70;99.90
7814;DHT22;3952;48.364;16.022;2023-11-19T08:06:42;3.80;99.90
7814;DHT22;3952;48.364;16.022;2023-11-19T08:09:11;3.90;99.90
7814;DHT22;3952;48.364;16.022;2023-11-19T08:11:40;3.90;99.90
7814;DHT22;3952;48.364;16.022;2023-11-19T08:14:08;4.00;99.90
7814;DHT22;3952;48.364;16.022;2023-11-19T08:16:36;4.10;99.90
7814;DHT22;3952;48.364;16.022;2023-11-19T08:19:03;4.10;99.90
7814;DHT22;3952;48.364;16.022;2023-11-19T08:21:30;4.20;99.90
7814;DHT22;3952;48.364;16.022;2023-11-19T08:23:57;4.20;99.90
7814;DHT22;3952;48.364;16.022;2023-11-19T08:26:25;4.10;99.90
7814;DHT22;3952;48.364;16.022;2023-11-19T08:28:52;4.10;99.90
7814;DHT22;3952;48.364;16.022;2023-11-19T08:31:20;4.10;99.90
7814;DHT22;3952;48.364;16.022;2023-11-19T08:33:48;4.10;99.90
7814;DHT22;3952;48.364;16.022;2023-11-19T08:36:18;4.10;99.90
7814;DHT22;3952;48.364;16.022;2023-11-19T08:38:46;4.10;99.90
7814;DHT22;3952;48.364;16.022;2023-11-19T08:41:14;4.10;99.90
7814;DHT22;3952;48.364;16.022;2023-11-19T08:43:43;4.10;99.90
7814;DHT22;3952;48.364;16.022;2023-11-19T08:46:10;4.20;99.90
7814;DHT22;3952;48.364;16.022;2023-11-19T08:48:39;4.20;99.90
7814;DHT22;3952;48.364;16.022;2023-11-19T08:51:06;4.30;99.90
7814;DHT22;3952;48.364;16.022;2023-11-19T08:53:34;4.30;99.90
7814;DHT22;3952;48.364;16.022;2023-11-19T08:56:01;4.40;99.90
7814;DHT22;3952;48.364;16.022;2023-11-19T08:58:28;4.40;99.90
7814;DHT22;3952;48.364;16.022;2023-11-19T09:00:56;4.60;99.90
7814;DHT22;3952;48.364;16.022;2023-11-19T09:03:23;4.70;99.90
7814;DHT22;3952;48.364;16.022;2023-11-19T09:05:53;4.70;99.90
7814;DHT22;3952;48.364;16.022;2023-11-19T09:08:20;4.70;99.90
7814;DHT22;3952;48.364;16.022;2023-11-19T09:10:48;4.70;99.90
7814;DHT22;3952;48.364;16.022;2023-11-19T09:13:15;4.70;99.90
7814;DHT22;3952;48.364;16.022;2023-11-19T09:15:42;4.80;99.90
7814;DHT22;3952;48.364;16.022;2023-11-19T09:18:10;4.80;99.90
7814;DHT22;3952;48.364;16.022;2023-11-19T09:20:37;4.80;99.90
7814;DHT22;3952;48.364;16.022;2023-11-19T09:23:06;4.90;99.90
7814;DHT22;3952;48.364;16.022;2023-11-19T09:25:34;4.90;99.90
7814;DHT22;3952;48.364;16.022;2023-11-19T09:28:01;5.00;99.90
7814;DHT22;3952;48.364;16.022;2023-11-19T09:30:29;6.40;99.90
7814;DHT22;3952;48.364;16.022;2023-11-19T09:32:59;5.10;99.90
7814;DHT22;3952;48.364;16.022;2023-11-19T09:35:26;5.10;99.90
7814;DHT22;3952;48.364;16.022;2023-11-19T09:37:53;5.10;99.90
7814;DHT22;3952;48.364;16.022;2023-11-19T09:40:22;5.10;99.90
7814;DHT22;3952;48.364;16.022;2023-11-19T09:42:49;5.10;99.90
7814;DHT22;3952;48.364;16.022;2023-11-19T09:45:17;5.20;99.90
7814;DHT22;3952;48.364;16.022;2023-11-19T09:47:46;5.30;99.90
7814;DHT22;3952;48.364;16.022;2023-11-19T09:50:16;5.40;99.90
7814;DHT22;3952;48.364;16.022;2023-11-19T09:52:44;5.50;99.90
7814;DHT22;3952;48.364;16.022;2023-11-19T09:55:11;5.50;99.90
7814;DHT22;3952;48.364;16.022;2023-11-19T09:57:40;5.50;99.90
7814;DHT22;3952;48.364;16.022;2023-11-19T10:00:10;5.50;99.90
7814;DHT22;3952;48.364;16.022;2023-11-19T10:02:39;5.50;99.90
7814;DHT22;3952;48.364;16.022;2023-11-19T10:05:08;5.50;99.90
7814;DHT22;3952;48.364;16.022;2023-11-19T10:07:36;5.60;99.90
7814;DHT22;3952;48.364;16.022;2023-11-19T10:10:05;5.60;99.90
7814;DHT22;3952;48.364;16.022;2023-11-19T10:12:33;5.70;99.90
7814;DHT22;3952;48.364;16.022;2023-11-19T10:15:02;5.70;99.90
7814;DHT22;3952;48.364;16.022;2023-11-19T10:17:32;5.80;99.90
7814;DHT22;3952;48.364;16.022;2023-11-19T10:19:59;5.80;99.90
7814;DHT22;3952;48.364;16.022;2023-11-19T10:22:28;5.80;99.90
7814;DHT22;3952;48.364;16.022;2023-11-19T10:24:56;5.80;99.90
7814;DHT22;3952;48.364;16.022;2023-11-19T10:27:24;5.90;99.90
7814;DHT22;3952;48.364;16.022;2023-11-19T10:29:52;5.80;99.90
7814;DHT22;3952;48.364;16.022;2023-11-19T10:32:21;5.80;99.90
7814;DHT22;3952;48.364;16.022;2023-11-19T10:34:48;5.90;99.90
7814;DHT22;3952;48.364;16.022;2023-11-19T10:37:28;5.90;99.90
7814;DHT22;3952;48.364;16.022;2023-11-19T10:39:57;5.90;99.90
7814;DHT22;3952;48.364;16.022;2023-11-19T10:42:25;5.90;99.90
7814;DHT22;3952;48.364;16.022;2023-11-19T10:44:52;6.00;99.90
7814;DHT22;3952;48.364;16.022;2023-11-19T10:47:23;6.00;99.90
7814;DHT22;3952;48.364;16.022;2023-11-19T10:49:50;6.00;99.90
7814;DHT22;3952;48.364;16.022;2023-11-19T10:52:18;6.10;99.90
7814;DHT22;3952;48.364;16.022;2023-11-19T10:54:50;6.10;99.90
7814;DHT22;3952;48.364;16.022;2023-11-19T10:57:20;6.20;99.90
7814;DHT22;3952;48.364;16.022;2023-11-19T10:59:50;6.20;99.90
7814;DHT22;3952;48.364;16.022;2023-11-19T11:02:24;6.30;99.90
7814;DHT22;3952;48.364;16.022;2023-11-19T11:04:53;6.30;99.90
7814;DHT22;3952;48.364;16.022;2023-11-19T11:07:22;5.60;99.90
7814;DHT22;3952;48.364;16.022;2023-11-19T11:09:52;6.50;99.90
7814;DHT22;3952;48.364;16.022;2023-11-19T11:12:22;6.60;99.90
7814;DHT22;3952;48.364;16.022;2023-11-19T11:14:50;6.60;99.90
7814;DHT22;3952;48.364;16.022;2023-11-19T11:17:21;6.70;99.90
7814;DHT22;3952;48.364;16.022;2023-11-19T11:19:51;6.80;99.90
7814;DHT22;3952;48.364;16.022;2023-11-19T11:22:18;6.80;99.90
7814;DHT22;3952;48.364;16.022;2023-11-19T11:25:04;6.80;99.90
7814;DHT22;3952;48.364;16.022;2023-11-19T11:28:00;6.90;99.90
7814;DHT22;3952;48.364;16.022;2023-11-19T11:30:39;6.90;99.90
7814;DHT22;3952;48.364;16.022;2023-11-19T11:33:26;7.00;99.90
7814;DHT22;3952;48.364;16.022;2023-11-19T11:36:07;7.10;99.90
7814;DHT22;3952;48.364;16.022;2023-11-19T11:38:38;6.90;99.90
7814;DHT22;3952;48.364;16.022;2023-11-19T11:41:16;7.20;99.90
7814;DHT22;3952;48.364;16.022;2023-11-19T11:43:45;7.30;99.90
7814;DHT22;3952;48.364;16.022;2023-11-19T11:49:28;7.40;99.90
7814;DHT22;3952;48.364;16.022;2023-11-19T11:52:00;7.50;99.90
7814;DHT22;3952;48.364;16.022;2023-11-19T11:54:29;7.60;99.90
7814;DHT22;3952;48.364;16.022;2023-11-19T11:57:17;8.80;99.90
7814;DHT22;3952;48.364;16.022;2023-11-19T11:59:47;7.80;99.90
7814;DHT22;3952;48.364;16.022;2023-11-19T12:02:16;7.80;99.90
7814;DHT22;3952;48.364;16.022;2023-11-19T12:04:47;7.90;99.90
7814;DHT22;3952;48.364;16.022;2023-11-19T12:07:16;8.00;99.90
7814;DHT22;3952;48.364;16.022;2023-11-19T12:09:48;8.00;99.90
7814;DHT22;3952;48.364;16.022;2023-11-19T12:12:21;8.10;99.90
7814;DHT22;3952;48.364;16.022;2023-11-19T12:15:05;8.10;99.90
7814;DHT22;3952;48.364;16.022;2023-11-19T12:17:43;8.10;99.90
7814;DHT22;3952;48.364;16.022;2023-11-19T12:20:17;8.00;99.90
7814;DHT22;3952;48.364;16.022;2023-11-19T12:22:45;8.10;99.90
7814;DHT22;3952;48.364;16.022;2023-11-19T12:25:14;8.00;99.90
7814;DHT22;3952;48.364;16.022;2023-11-19T12:27:44;8.00;99.90
7814;DHT22;3952;48.364;16.022;2023-11-19T12:30:12;8.00;99.90
7814;DHT22;3952;48.364;16.022;2023-11-19T12:32:40;8.10;99.90
7814;DHT22;3952;48.364;16.022;2023-11-19T12:35:09;8.10;99.90
7814;DHT22;3952;48.364;16.022;2023-11-19T12:37:43;7.90;99.90
7814;DHT22;3952;48.364;16.022;2023-11-19T12:40:16;8.10;99.90
7814;DHT22;3952;48.364;16.022;2023-11-19T12:42:44;8.20;99.90
7814;DHT22;3952;48.364;16.022;2023-11-19T12:45:11;8.20;99.90
7814;DHT22;3952;48.364;16.022;2023-11-19T12:47:39;8.20;99.90
7814;DHT22;3952;48.364;16.022;2023-11-19T12:50:07;8.20;99.90
7814;DHT22;3952;48.364;16.022;2023-11-19T12:52:35;8.20;99.90
7814;DHT22;3952;48.364;16.022;2023-11-19T12:55:05;8.20;99.90
7814;DHT22;3952;48.364;16.022;2023-11-19T12:57:39;8.30;99.90
7814;DHT22;3952;48.364;16.022;2023-11-19T13:00:17;8.30;99.90
7814;DHT22;3952;48.364;16.022;2023-11-19T13:02:47;8.40;99.90
7814;DHT22;3952;48.364;16.022;2023-11-19T13:05:25;8.50;99.90
7814;DHT22;3952;48.364;16.022;2023-11-19T13:08:03;8.60;99.90
7814;DHT22;3952;48.364;16.022;2023-11-19T13:10:32;8.60;99.90
7814;DHT22;3952;48.364;16.022;2023-11-19T13:13:04;8.70;99.90
7814;DHT22;3952;48.364;16.022;2023-11-19T13:15:32;8.80;99.90
7814;DHT22;3952;48.364;16.022;2023-11-19T13:17:59;8.80;99.90
7814;DHT22;3952;48.364;16.022;2023-11-19T13:20:27;8.80;99.90
7814;DHT22;3952;48.364;16.022;2023-11-19T13:22:55;8.70;99.90
7814;DHT22;3952;48.364;16.022;2023-11-19T13:25:23;8.70;99.90
7814;DHT22;3952;48.364;16.022;2023-11-19T13:27:52;8.80;99.90
7814;DHT22;3952;48.364;16.022;2023-11-19T13:30:19;8.80;99.90
7814;DHT22;3952;48.364;16.022;2023-11-19T13:32:48;8.80;99.90
7814;DHT22;3952;48.364;16.022;2023-11-19T13:35:15;8.80;99.90
7814;DHT22;3952;48.364;16.022;2023-11-19T13:37:43;8.80;99.90
7814;DHT22;3952;48.364;16.022;2023-11-19T13:40:11;8.80;99.90
7814;DHT22;3952;48.364;16.022;2023-11-19T13:42:40;8.80;99.90
7814;DHT22;3952;48.364;16.022;2023-11-19T13:45:10;8.80;99.90
7814;DHT22;3952;48.364;16.022;2023-11-19T13:47:41;8.80;99.90
7814;DHT22;3952;48.364;16.022;2023-11-19T13:50:09;8.80;99.90
7814;DHT22;3952;48.364;16.022;2023-11-19T13:52:38;8.80;99.90
7814;DHT22;3952;48.364;16.022;2023-11-19T13:55:07;8.80;99.90
7814;DHT22;3952;48.364;16.022;2023-11-19T13:57:35;8.80;99.90
7814;DHT22;3952;48.364;16.022;2023-11-19T14:00:02;8.80;99.90
7814;DHT22;3952;48.364;16.022;2023-11-19T14:02:33;8.80;99.90
7814;DHT22;3952;48.364;16.022;2023-11-19T14:05:00;8.80;99.90
7814;DHT22;3952;48.364;16.022;2023-11-19T14:07:28;8.80;99.90
7814;DHT22;3952;48.364;16.022;2023-11-19T14:09:56;8.80;99.90
7814;DHT22;3952;48.364;16.022;2023-11-19T14:12:24;8.80;99.90
7814;DHT22;3952;48.364;16.022;2023-11-19T14:14:51;8.80;99.90
7814;DHT22;3952;48.364;16.022;2023-11-19T14:17:18;8.80;99.90
7814;DHT22;3952;48.364;16.022;2023-11-19T14:19:47;8.80;99.90
7814;DHT22;3952;48.364;16.022;2023-11-19T14:22:14;8.90;99.90
7814;DHT22;3952;48.364;16.022;2023-11-19T14:24:41;8.90;99.90
7814;DHT22;3952;48.364;16.022;2023-11-19T14:27:08;8.90;99.90
7814;DHT22;3952;48.364;16.022;2023-11-19T14:29:36;8.90;99.90
7814;DHT22;3952;48.364;16.022;2023-11-19T14:32:04;8.90;99.90
7814;DHT22;3952;48.364;16.022;2023-11-19T14:34:31;8.90;99.90
7814;DHT22;3952;48.364;16.022;2023-11-19T14:37:00;8.90;99.90
7814;DHT22;3952;48.364;16.022;2023-11-19T14:39:27;9.00;99.90
7814;DHT22;3952;48.364;16.022;2023-11-19T14:41:56;9.00;99.90
7814;DHT22;3952;48.364;16.022;2023-11-19T14:44:26;9.00;99.90
7814;DHT22;3952;48.364;16.022;2023-11-19T14:46:55;9.00;99.90
7814;DHT22;3952;48.364;16.022;2023-11-19T14:49:22;9.10;99.90
7814;DHT22;3952;48.364;16.022;2023-11-19T14:51:50;9.10;99.90
7814;DHT22;3952;48.364;16.022;2023-11-19T14:54:19;8.50;99.90
7814;DHT22;3952;48.364;16.022;2023-11-19T14:56:46;9.10;99.90
7814;DHT22;3952;48.364;16.022;2023-11-19T14:59:13;9.10;99.90
7814;DHT22;3952;48.364;16.022;2023-11-19T15:01:41;9.20;99.90
7814;DHT22;3952;48.364;16.022;2023-11-19T15:04:08;9.20;99.90
7814;DHT22;3952;48.364;16.022;2023-11-19T15:06:35;9.20;99.90
7814;DHT22;3952;48.364;16.022;2023-11-19T15:09:03;9.20;99.90
7814;DHT22;3952;48.364;16.022;2023-11-19T15:11:31;9.20;99.90
7814;DHT22;3952;48.364;16.022;2023-11-19T15:13:59;9.20;99.90
7814;DHT22;3952;48.364;16.022;2023-11-19T15:16:26;9.10;99.90
7814;DHT22;3952;48.364;16.022;2023-11-19T15:18:57;9.10;99.90
7814;DHT22;3952;48.364;16.022;2023-11-19T15:21:29;9.10;99.90
7814;DHT22;3952;48.364;16.022;2023-11-19T15:23:56;9.00;99.90
7814;DHT22;3952;48.364;16.022;2023-11-19T15:26:23;9.00;99.90
7814;DHT22;3952;48.364;16.022;2023-11-19T15:28:52;9.00;99.90
7814;DHT22;3952;48.364;16.022;2023-11-19T15:31:22;8.90;99.90
7814;DHT22;3952;48.364;16.022;2023-11-19T15:33:48;8.90;99.90
7814;DHT22;3952;48.364;16.022;2023-11-19T15:36:16;8.80;99.90
7814;DHT22;3952;48.364;16.022;2023-11-19T15:38:44;8.80;99.90
7814;DHT22;3952;48.364;16.022;2023-11-19T15:41:12;8.80;99.90
7814;DHT22;3952;48.364;16.022;2023-11-19T15:43:39;8.70;99.90
7814;DHT22;3952;48.364;16.022;2023-11-19T15:46:09;8.70;99.90
7814;DHT22;3952;48.364;16.022;2023-11-19T15:48:37;8.70;99.90
7814;DHT22;3952;48.364;16.022;2023-11-19T15:51:05;8.70;99.90
7814;DHT22;3952;48.364;16.022;2023-11-19T15:53:33;8.70;99.90
7814;DHT22;3952;48.364;16.022;2023-11-19T15:56:00;8.60;99.90
7814;DHT22;3952;48.364;16.022;2023-11-19T15:58:29;8.60;99.90
7814;DHT22;3952;48.364;16.022;2023-11-19T16:00:56;8.60;99.90
7814;DHT22;3952;48.364;16.022;2023-11-19T16:03:25;8.60;99.90
7814;DHT22;3952;48.364;16.022;2023-11-19T16:05:54;8.60;99.90
7814;DHT22;3952;48.364;16.022;2023-11-19T16:08:21;8.60;99.90
7814;DHT22;3952;48.364;16.022;2023-11-19T16:10:49;8.60;99.90
7814;DHT22;3952;48.364;16.022;2023-11-19T16:13:17;8.60;99.90